createdAt,value
2023-04-20T00:06:21.682Z,62.22
2023-04-20T00:12:50.500Z,62.76
2023-04-20T00:14:52.932Z,63.64
2023-04-20T00:17:05.997Z,63.38
2023-04-20T00:24:08.743Z,63.88
2023-04-20T00:28:37.481Z,63.88
2023-04-20T00:33:02.559Z,63.84
2023-04-20T00:37:30.864Z,64.35
2023-04-20T00:49:45.254Z,64.99
2023-04-20T01:08:51.412Z,65.10
2023-04-20T01:10:56.488Z,65.69
2023-04-20T01:13:00.428Z,66.16
2023-04-20T01:20:27.538Z,66.18
2023-04-20T01:33:58.437Z,66.81
2023-04-20T01:41:39.105Z,64.60
2023-04-20T01:53:15.784Z,66.32
2023-04-20T01:55:22.747Z,67.11
2023-04-20T02:03:03.792Z,66.13
2023-04-20T02:11:16.259Z,65.37
2023-04-20T02:13:59.489Z,65.39
2023-04-20T02:16:42.805Z,65.24
2023-04-20T02:23:33.035Z,66.52
2023-04-20T02:30:23.651Z,66.85
2023-04-20T02:37:56.527Z,65.35
2023-04-20T02:44:42.590Z,65.78
2023-04-20T02:54:36.298Z,65.95
2023-04-20T03:01:49.673Z,67.85
2023-04-20T03:04:09.621Z,66.77
2023-04-20T03:06:14.388Z,68.08
2023-04-20T03:18:52.751Z,66.69
2023-04-20T03:23:42.914Z,68.28
2023-04-20T03:26:01.287Z,66.08
2023-04-20T03:28:02.968Z,67.62
2023-04-20T03:30:12.267Z,67.88
2023-04-20T03:34:35.353Z,67.80
2023-04-20T03:36:38.655Z,68.29
2023-04-20T03:44:08.304Z,67.66
2023-04-20T04:00:38.406Z,67.02
2023-04-20T04:05:19.818Z,68.02
2023-04-20T04:09:43.325Z,68.36
2023-04-20T04:29:42.056Z,67.12
2023-04-20T04:35:05.143Z,66.88
2023-04-20T04:40:28.121Z,66.80
2023-04-20T06:27:20.587Z,67.05
2023-04-20T06:40:54.758Z,68.29
2023-04-20T06:42:59.775Z,67.90
2023-04-20T06:45:05.167Z,67.96
2023-04-20T06:49:28.918Z,67.43
2023-04-20T07:01:02.463Z,67.81
2023-04-20T07:03:08.651Z,67.57
2023-04-20T07:12:22.283Z,65.59
2023-04-20T07:14:26.317Z,65.97
2023-04-20T07:16:45.893Z,65.73
2023-04-20T07:18:47.549Z,65.64
2023-04-20T07:23:16.206Z,65.07
2023-04-20T07:25:20.945Z,64.37
2023-04-20T07:27:22.905Z,65.25
2023-04-20T07:29:26.848Z,65.07
2023-04-20T07:31:34.178Z,65.02
2023-04-20T07:33:51.300Z,64.93
2023-04-20T07:35:52.873Z,65.15
2023-04-20T07:38:00.848Z,64.76
2023-04-20T07:42:23.815Z,64.40
2023-04-20T07:46:47.692Z,64.53
2023-04-20T07:56:26.477Z,62.39
2023-04-20T07:58:28.008Z,62.64
2023-04-20T08:00:35.921Z,61.93
2023-04-20T08:02:37.918Z,62.00
2023-04-20T08:04:40.275Z,61.90
2023-04-20T08:06:42.835Z,62.62
2023-04-20T08:08:49.691Z,62.21
2023-04-20T08:10:51.899Z,62.15
2023-04-20T08:13:01.378Z,62.37
2023-04-20T08:15:07.565Z,62.16
2023-04-20T08:17:10.732Z,61.68
2023-04-20T08:21:16.302Z,62.16
2023-04-20T08:23:19.669Z,62.10
2023-04-20T08:25:21.213Z,61.18
2023-04-20T08:27:23.817Z,60.31
2023-04-20T08:29:25.543Z,60.78
2023-04-20T08:31:33.858Z,60.82
2023-04-20T08:33:36.862Z,60.14
2023-04-20T08:35:38.514Z,59.90
2023-04-20T08:37:40.282Z,59.32
2023-04-20T08:39:42.124Z,59.31
2023-04-20T08:41:43.862Z,59.84
2023-04-20T08:43:45.437Z,60.43
2023-04-20T08:45:49.460Z,60.01
2023-04-20T08:47:52.833Z,59.67
2023-04-20T08:49:56.613Z,58.95
2023-04-20T08:51:58.633Z,58.96
2023-04-20T08:54:05.295Z,59.26
2023-04-20T08:56:07.902Z,58.65
2023-04-20T08:58:09.659Z,59.12
2023-04-20T09:00:13.746Z,58.43
2023-04-20T09:02:15.909Z,58.71
2023-04-20T09:04:20.084Z,58.33
2023-04-20T09:06:23.483Z,58.24
2023-04-20T09:08:34.912Z,58.46
2023-04-20T09:10:41.397Z,58.84
2023-04-20T09:12:43.157Z,58.53
2023-04-20T09:14:46.308Z,59.22
2023-04-20T09:16:52.133Z,59.00
2023-04-20T09:18:55.147Z,58.93
2023-04-20T09:20:56.725Z,59.28
2023-04-20T09:23:11.047Z,59.47
2023-04-20T09:25:13.911Z,58.63
2023-04-20T09:27:16.606Z,58.85
2023-04-20T09:29:19.381Z,58.74
2023-04-20T09:31:23.017Z,58.90
2023-04-20T09:33:28.316Z,58.86
2023-04-20T09:35:30.159Z,59.49
2023-04-20T09:37:31.913Z,59.45
2023-04-20T09:39:36.236Z,59.75
2023-04-20T09:41:40.347Z,60.03
2023-04-20T09:43:42.963Z,59.90
2023-04-20T09:45:44.796Z,60.12
2023-04-20T09:47:47.999Z,59.69
2023-04-20T09:55:23.549Z,60.05
2023-04-20T09:57:26.125Z,60.02
2023-04-20T09:59:27.806Z,60.13
2023-04-20T10:01:31.163Z,59.67
2023-04-20T10:03:41.978Z,59.54
2023-04-20T10:05:44.121Z,59.64
2023-04-20T10:07:45.880Z,59.89
2023-04-20T10:09:47.442Z,59.25
2023-04-20T10:11:54.015Z,59.12
2023-04-20T10:13:57.404Z,59.00
2023-04-20T10:15:59.031Z,59.08
2023-04-20T10:18:00.860Z,58.76
2023-04-20T10:20:02.759Z,58.47
2023-04-20T10:22:05.065Z,58.37
2023-04-20T10:24:07.152Z,58.84
2023-04-20T10:26:09.125Z,58.16
2023-04-20T10:28:12.316Z,57.17
2023-04-20T10:30:15.265Z,57.66
2023-04-20T10:32:27.819Z,57.89
2023-04-20T10:34:34.410Z,56.40
2023-04-20T10:36:38.382Z,57.07
2023-04-20T10:38:40.242Z,56.25
2023-04-20T10:40:53.629Z,56.76
2023-04-20T10:43:02.785Z,55.73
2023-04-20T10:45:06.984Z,55.25
2023-04-20T10:47:08.749Z,54.75
2023-04-20T10:49:10.385Z,54.07
2023-04-20T10:51:12.134Z,53.93
2023-04-20T10:53:20.842Z,54.81
2023-04-20T10:55:24.431Z,52.82
2023-04-20T10:57:26.463Z,52.69
2023-04-20T10:59:28.762Z,53.21
2023-04-20T11:01:32.347Z,52.63
2023-04-20T11:03:34.314Z,51.59
2023-04-20T11:05:36.182Z,51.53
2023-04-20T11:07:47.545Z,53.42
2023-04-20T11:09:54.282Z,53.21
2023-04-20T11:11:59.512Z,52.74
2023-04-20T11:14:08.325Z,53.41
2023-04-20T11:16:11.914Z,51.90
2023-04-20T11:18:14.996Z,51.59
2023-04-20T11:20:16.656Z,51.32
2023-04-20T11:22:22.158Z,51.93
2023-04-20T11:24:25.655Z,51.51
2023-04-20T11:26:35.103Z,52.57
2023-04-20T11:28:36.737Z,51.80
2023-04-20T11:30:42.312Z,51.30
2023-04-20T11:32:54.435Z,52.36
2023-04-20T11:37:07.745Z,51.20
2023-04-20T11:39:09.676Z,51.43
2023-04-20T11:41:11.279Z,50.70
2023-04-20T11:43:12.866Z,50.82
2023-04-20T11:45:14.556Z,51.48
2023-04-20T11:47:16.101Z,51.02
2023-04-20T11:49:17.920Z,50.80
2023-04-20T11:51:21.104Z,50.40
2023-04-20T11:53:22.695Z,51.33
2023-04-20T11:55:24.323Z,50.67
2023-04-20T11:57:26.129Z,50.44
2023-04-20T11:59:27.874Z,49.86
2023-04-20T12:01:29.488Z,50.02
2023-04-20T12:03:31.231Z,50.13
2023-04-20T12:05:32.957Z,50.19
2023-04-20T12:07:35.939Z,49.40
2023-04-20T12:09:37.655Z,48.73
2023-04-20T12:11:39.308Z,49.29
2023-04-20T12:13:40.848Z,48.97
2023-04-20T12:15:42.590Z,49.38
2023-04-20T12:17:44.342Z,48.87
2023-04-20T12:19:46.062Z,48.83
2023-04-20T12:21:47.626Z,49.00
2023-04-20T12:23:50.570Z,49.36
2023-04-20T12:25:52.376Z,48.61
2023-04-20T12:27:54.001Z,48.55
2023-04-20T12:29:55.668Z,48.95
2023-04-20T12:31:57.358Z,48.76
2023-04-20T12:33:59.478Z,48.50
2023-04-20T12:36:01.117Z,48.39
2023-04-20T12:38:02.987Z,49.59
2023-04-20T12:40:07.610Z,48.94
2023-04-20T12:42:09.177Z,48.54
2023-04-20T12:46:12.450Z,48.60
2023-04-20T12:48:14.475Z,48.44
2023-04-20T12:50:16.082Z,48.45
2023-04-20T12:52:17.722Z,48.06
2023-04-20T12:54:19.634Z,47.71
2023-04-20T12:56:22.796Z,48.45
2023-04-20T12:58:24.413Z,48.28
2023-04-20T13:00:26.153Z,47.92
2023-04-20T13:02:27.939Z,47.76
2023-04-20T13:04:32.678Z,48.14
2023-04-20T13:06:34.324Z,47.61
2023-04-20T13:08:36.184Z,47.81
2023-04-20T13:10:39.898Z,47.58
2023-04-20T13:12:42.841Z,47.66
2023-04-20T13:14:44.585Z,47.56
2023-04-20T13:16:46.256Z,47.23
2023-04-20T13:18:48.025Z,47.47
2023-04-20T13:20:49.602Z,47.87
2023-04-20T13:22:57.471Z,47.49
2023-04-20T13:24:59.823Z,47.23
2023-04-20T13:27:01.461Z,47.06
2023-04-20T13:29:04.383Z,47.19
2023-04-20T13:31:06.083Z,47.57
2023-04-20T13:33:07.857Z,47.34
2023-04-20T13:35:09.744Z,47.30
2023-04-20T13:37:11.494Z,47.06
2023-04-20T13:39:13.378Z,47.27
2023-04-20T13:41:14.956Z,47.00
2023-04-20T13:43:16.630Z,46.92
2023-04-20T13:45:19.892Z,46.82
2023-04-20T13:47:21.740Z,47.26
2023-04-20T13:49:23.257Z,47.19
2023-04-20T13:51:24.917Z,46.92
2023-04-20T13:53:26.504Z,46.71
2023-04-20T13:55:28.076Z,47.07
2023-04-20T13:57:29.699Z,47.50
2023-04-20T13:59:31.378Z,46.89
2023-04-20T14:01:34.754Z,47.64
2023-04-20T14:03:36.539Z,46.71
2023-04-20T14:05:38.747Z,46.67
2023-04-20T14:07:40.512Z,46.63
2023-04-20T14:09:42.135Z,46.49
2023-04-20T14:11:43.819Z,46.27
2023-04-20T14:13:45.427Z,46.81
2023-04-20T14:15:47.003Z,47.28
2023-04-20T14:17:52.218Z,46.71
2023-04-20T14:19:54.144Z,46.60
2023-04-20T14:21:55.713Z,46.72
2023-04-20T14:23:57.371Z,46.68
2023-04-20T14:25:59.276Z,46.72
2023-04-20T14:28:01.054Z,46.33
2023-04-20T14:30:03.388Z,46.81
2023-04-20T14:32:05.152Z,46.46
2023-04-20T14:34:09.476Z,46.52
2023-04-20T14:36:11.120Z,46.18
2023-04-20T14:38:12.768Z,46.16
2023-04-20T14:40:14.446Z,46.93
2023-04-20T14:42:16.060Z,46.75
2023-04-20T14:44:17.963Z,46.58
2023-04-20T14:46:19.890Z,46.58
2023-04-20T14:48:21.527Z,46.29
2023-04-20T14:50:26.313Z,47.10
2023-04-20T14:52:27.898Z,46.99
2023-04-20T14:54:29.583Z,46.32
2023-04-20T14:56:31.316Z,46.77
2023-04-20T14:58:33.078Z,46.67
2023-04-20T15:00:34.777Z,46.69
2023-04-20T15:02:36.702Z,46.85
2023-04-20T15:04:38.915Z,47.02
2023-04-20T15:06:42.115Z,47.15
2023-04-20T15:08:43.668Z,46.64
2023-04-20T15:10:45.356Z,46.62
2023-04-20T15:12:48.055Z,46.78
2023-04-20T15:14:49.958Z,46.78
2023-04-20T15:16:52.708Z,46.47
2023-04-20T15:18:54.390Z,46.54
2023-04-20T15:20:56.138Z,46.26
2023-04-20T15:22:59.052Z,46.76
2023-04-20T15:25:00.880Z,46.75
2023-04-20T15:27:03.957Z,46.43
2023-04-20T15:29:07.429Z,46.57
2023-04-20T15:31:08.970Z,46.72
2023-04-20T15:33:13.521Z,47.44
2023-04-20T15:35:15.128Z,47.12
2023-04-20T15:37:16.968Z,46.89
2023-04-20T15:39:19.921Z,46.85
2023-04-20T15:41:21.593Z,46.39
2023-04-20T15:43:23.108Z,46.13
2023-04-20T15:45:25.182Z,46.09
2023-04-20T15:47:26.754Z,46.47
2023-04-20T15:49:28.596Z,46.67
2023-04-20T15:51:30.189Z,46.21
2023-04-20T15:53:31.742Z,46.65
2023-04-20T15:55:38.056Z,47.37
2023-04-20T15:57:39.641Z,46.19
2023-04-20T15:59:41.198Z,46.50
2023-04-20T16:01:43.066Z,46.18
2023-04-20T16:03:46.034Z,45.54
2023-04-20T16:05:48.264Z,45.74
2023-04-20T16:07:49.995Z,45.59
2023-04-20T16:09:51.687Z,45.48
2023-04-20T16:11:57.898Z,46.59
2023-04-20T16:14:02.647Z,46.35
2023-04-20T16:16:07.927Z,46.87
2023-04-20T16:18:09.666Z,46.16
2023-04-20T16:20:12.360Z,45.98
2023-04-20T16:22:14.010Z,45.78
2023-04-20T16:24:16.018Z,46.18
2023-04-20T16:26:17.697Z,46.48
2023-04-20T16:28:20.539Z,45.99
2023-04-20T16:30:22.450Z,46.47
2023-04-20T16:32:24.393Z,46.77
2023-04-20T16:34:26.018Z,46.67
2023-04-20T16:36:27.669Z,46.61
2023-04-20T16:38:29.395Z,47.29
2023-04-20T16:40:30.974Z,47.60
2023-04-20T16:42:32.609Z,47.32
2023-04-20T16:44:35.624Z,47.82
2023-04-20T16:46:37.265Z,47.69
2023-04-20T16:48:38.845Z,47.51
2023-04-20T16:50:42.266Z,47.61
2023-04-20T16:52:43.939Z,47.64
2023-04-20T16:54:45.765Z,48.07
2023-04-20T16:56:47.357Z,47.92
2023-04-20T16:58:49.016Z,47.70
2023-04-20T17:00:55.455Z,48.31
2023-04-20T17:02:57.920Z,48.05
2023-04-20T17:05:01.363Z,48.81
2023-04-20T17:07:02.877Z,48.81
2023-04-20T17:09:04.514Z,48.95
2023-04-20T17:11:06.540Z,49.06
2023-04-20T17:13:08.193Z,49.69
2023-04-20T17:15:10.750Z,49.72
2023-04-20T17:17:13.692Z,49.60
2023-04-20T17:19:15.332Z,49.65
2023-04-20T17:21:17.034Z,50.12
2023-04-20T17:23:19.180Z,49.52
2023-04-20T17:25:20.819Z,49.91
2023-04-20T17:27:22.587Z,49.60
2023-04-20T17:29:24.331Z,49.77
2023-04-20T17:31:26.047Z,49.80
2023-04-20T17:33:29.048Z,49.88
2023-04-20T17:35:34.442Z,50.26
2023-04-20T17:37:37.437Z,49.71
2023-04-20T17:39:39.027Z,50.02
2023-04-20T17:41:40.740Z,49.82
2023-04-20T17:43:42.474Z,49.57
2023-04-20T17:45:44.134Z,50.87
2023-04-20T17:47:45.924Z,50.45
2023-04-20T17:49:48.820Z,50.26
2023-04-20T17:51:50.606Z,50.57
2023-04-20T17:53:52.341Z,50.48
2023-04-20T17:55:53.963Z,50.99
2023-04-20T17:57:55.825Z,51.11
2023-04-20T17:59:57.491Z,51.13
2023-04-20T18:01:59.172Z,51.44
2023-04-20T18:04:04.393Z,51.82
2023-04-20T18:06:07.554Z,51.57
2023-04-20T18:08:09.087Z,52.17
2023-04-20T18:10:11.659Z,52.41
2023-04-20T18:12:13.208Z,52.28
2023-04-20T18:14:14.774Z,52.47
2023-04-20T18:16:16.367Z,52.44
2023-04-20T18:18:17.987Z,52.68
2023-04-20T18:20:19.776Z,52.89
2023-04-20T18:22:23.013Z,53.49
2023-04-20T18:24:24.576Z,53.55
2023-04-20T18:26:26.324Z,53.93
2023-04-20T18:28:27.961Z,54.18
2023-04-20T18:30:29.646Z,53.79
2023-04-20T18:32:31.674Z,53.84
2023-04-20T18:34:33.386Z,54.35
2023-04-20T18:36:34.914Z,54.85
2023-04-20T18:38:37.892Z,55.02
2023-04-20T18:40:39.515Z,55.31
2023-04-20T18:42:41.280Z,55.35
2023-04-20T18:44:42.880Z,55.46
2023-04-20T18:46:44.973Z,55.68
2023-04-20T18:48:46.837Z,55.63
2023-04-20T18:50:48.540Z,55.61
2023-04-20T18:52:50.169Z,56.54
2023-04-20T18:54:53.241Z,56.32
2023-04-20T18:56:54.883Z,56.59
2023-04-20T18:58:56.527Z,56.46
2023-04-20T19:00:58.398Z,56.59
2023-04-20T19:03:00.174Z,56.33
2023-04-20T19:05:01.929Z,56.92
2023-04-20T19:07:03.473Z,56.94
2023-04-20T19:09:08.324Z,57.37
2023-04-20T19:11:11.465Z,57.30
2023-04-20T19:13:13.005Z,57.03
2023-04-20T19:15:14.551Z,57.46
2023-04-20T19:17:16.410Z,57.52
2023-04-20T19:19:18.200Z,57.72
2023-04-20T19:21:21.671Z,57.90
2023-04-20T19:23:23.669Z,58.19
2023-04-20T19:25:25.272Z,58.69
2023-04-20T19:27:28.235Z,58.31
2023-04-20T19:29:29.755Z,58.54
2023-04-20T19:31:31.714Z,58.65
2023-04-20T19:33:33.292Z,59.02
2023-04-20T19:35:34.905Z,58.72
2023-04-20T19:37:36.556Z,58.76
2023-04-20T19:39:38.095Z,59.27
2023-04-20T19:41:39.856Z,59.18
2023-04-20T19:43:42.740Z,59.42
2023-04-20T19:45:44.390Z,59.39
2023-04-20T19:47:46.052Z,59.11
2023-04-20T19:49:48.078Z,59.79
2023-04-20T19:51:49.837Z,59.64
2023-04-20T19:53:51.950Z,60.04
2023-04-20T19:55:53.630Z,60.21
2023-04-20T19:57:55.353Z,59.62
2023-04-20T19:59:58.312Z,60.27
2023-04-20T20:02:00.080Z,59.60
2023-04-20T20:04:02.255Z,60.00
2023-04-20T20:06:04.151Z,60.00
2023-04-20T20:08:05.859Z,59.79
2023-04-20T20:10:07.933Z,60.07
2023-04-20T20:12:09.586Z,60.23
2023-04-20T20:14:11.243Z,59.74
2023-04-20T20:16:14.177Z,60.28
2023-04-20T20:18:15.930Z,59.82
2023-04-20T20:20:17.669Z,59.98
2023-04-20T20:22:19.375Z,60.08
2023-04-20T20:24:20.918Z,60.19
2023-04-20T20:26:22.478Z,60.84
2023-04-20T20:28:24.112Z,60.42
2023-04-20T20:30:25.932Z,60.35
2023-04-20T20:32:28.859Z,60.66
2023-04-20T20:34:30.458Z,61.07
2023-04-20T20:36:32.044Z,60.96
2023-04-20T20:38:35.847Z,61.21
2023-04-20T20:40:38.653Z,60.81
2023-04-20T20:42:40.825Z,61.06
2023-04-20T20:44:42.524Z,60.86
2023-04-20T20:46:44.342Z,61.04
2023-04-20T20:48:47.309Z,61.02
2023-04-20T20:50:48.969Z,61.50
2023-04-20T20:52:50.482Z,61.47
2023-04-20T20:54:52.239Z,61.45
2023-04-20T20:56:56.995Z,61.72
2023-04-20T20:58:58.647Z,61.33
2023-04-20T21:01:00.328Z,61.19
2023-04-20T21:03:02.218Z,62.23
2023-04-20T21:05:06.266Z,62.03
2023-04-20T21:07:08.091Z,61.81
2023-04-20T21:09:09.645Z,61.48
2023-04-20T21:11:11.243Z,62.20
2023-04-20T21:13:12.830Z,61.52
2023-04-20T21:15:14.517Z,62.20
2023-04-20T21:17:16.058Z,61.62
2023-04-20T21:19:18.114Z,61.58
2023-04-20T21:21:21.274Z,61.89
2023-04-20T21:23:22.942Z,62.22
2023-04-20T21:25:24.917Z,62.28
2023-04-20T21:27:26.655Z,61.97
2023-04-20T21:29:28.283Z,62.45
2023-04-20T21:31:29.953Z,62.24
2023-04-20T21:33:33.410Z,61.83
2023-04-20T21:35:35.013Z,61.62
2023-04-20T21:37:38.064Z,62.00
2023-04-20T21:39:39.704Z,62.18
2023-04-20T21:41:41.482Z,62.06
2023-04-20T21:43:43.547Z,62.41
2023-04-20T21:45:45.264Z,62.67
2023-04-20T21:47:46.859Z,62.02
2023-04-20T21:49:48.793Z,62.70
2023-04-20T21:51:50.560Z,62.64
2023-04-20T21:53:53.485Z,62.20
2023-04-20T21:55:55.233Z,62.66
2023-04-20T21:57:56.807Z,62.22
2023-04-20T21:59:58.448Z,62.46
2023-04-20T22:02:00.247Z,62.87
2023-04-20T22:04:02.047Z,62.46
2023-04-20T22:06:04.162Z,62.83
2023-04-20T22:08:05.917Z,62.94
2023-04-20T22:10:10.137Z,62.22
2023-04-20T22:12:11.677Z,62.83
2023-04-20T22:14:13.304Z,62.61
2023-04-20T22:16:15.021Z,63.17
2023-04-20T22:18:16.569Z,62.77
2023-04-20T22:20:18.401Z,62.76
2023-04-20T22:22:19.932Z,62.48
2023-04-20T22:24:21.490Z,62.86
2023-04-20T22:26:24.462Z,62.48
2023-04-20T22:28:26.133Z,62.82
2023-04-20T22:30:28.077Z,62.64
2023-04-20T22:32:30.001Z,62.77
2023-04-20T22:34:31.682Z,62.89
2023-04-20T22:36:33.253Z,63.01
2023-04-20T22:38:35.323Z,62.45
2023-04-20T22:40:37.110Z,63.03
2023-04-20T22:42:40.145Z,62.88
2023-04-20T22:44:41.733Z,63.31
2023-04-20T22:46:43.484Z,63.25
2023-04-20T22:48:45.970Z,63.12
2023-04-20T22:50:49.864Z,63.60
2023-04-20T22:52:51.425Z,63.22
2023-04-20T22:54:53.025Z,63.59
2023-04-20T22:56:54.886Z,63.75
2023-04-20T22:58:57.784Z,63.77
2023-04-20T23:01:00.008Z,63.47
2023-04-20T23:03:01.792Z,63.42
2023-04-20T23:05:03.958Z,63.18
2023-04-20T23:07:05.732Z,63.87
2023-04-20T23:09:07.342Z,63.72
2023-04-20T23:11:08.945Z,63.47
2023-04-20T23:13:10.460Z,63.81
2023-04-20T23:15:13.754Z,63.84
2023-04-20T23:17:15.264Z,64.06
2023-04-20T23:19:17.111Z,63.69
2023-04-20T23:21:18.978Z,63.81
2023-04-20T23:23:20.640Z,64.05
2023-04-20T23:25:22.177Z,63.43
2023-04-20T23:27:23.731Z,64.07
2023-04-20T23:29:25.515Z,64.16
2023-04-20T23:31:28.610Z,63.52
2023-04-20T23:33:30.241Z,64.06
2023-04-20T23:35:32.013Z,63.86
2023-04-20T23:37:33.540Z,64.40
2023-04-20T23:39:36.662Z,63.83
2023-04-20T23:41:38.393Z,63.80
2023-04-20T23:43:40.420Z,64.21
2023-04-20T23:45:42.014Z,63.53
2023-04-20T23:47:45.075Z,64.12
2023-04-20T23:49:46.709Z,63.98
2023-04-20T23:51:48.283Z,64.22
2023-04-20T23:53:49.868Z,64.21
2023-04-20T23:55:51.520Z,63.70
2023-04-20T23:57:53.264Z,64.28
2023-04-20T23:59:54.834Z,64.06
